sensor_id;sensor_type;location;lat;lon;timestamp;temperature;humidity
19999;DHT22;10160;50.926;4.374;2023-07-28T00:01:32;18.40;99.90
19999;DHT22;10160;50.926;4.374;2023-07-28T00:03:57;18.40;99.90
19999;DHT22;10160;50.926;4.374;2023-07-28T00:06:23;18.40;99.90
19999;DHT22;10160;50.926;4.374;2023-07-28T00:08:49;18.40;99.90
19999;DHT22;10160;50.926;4.374;2023-07-28T00:11:21;18.30;99.90
19999;DHT22;10160;50.926;4.374;2023-07-28T00:13:46;18.30;99.90
19999;DHT22;10160;50.926;4.374;2023-07-28T00:16:12;18.40;99.90
19999;DHT22;10160;50.926;4.374;2023-07-28T00:18:38;18.40;99.90
19999;DHT22;10160;50.926;4.374;2023-07-28T00:21:07;18.40;99.90
19999;DHT22;10160;50.926;4.374;2023-07-28T00:23:33;18.60;99.90
19999;DHT22;10160;50.926;4.374;2023-07-28T00:25:59;18.60;99.90
19999;DHT22;10160;50.926;4.374;2023-07-28T00:28:24;18.70;99.90
19999;DHT22;10160;50.926;4.374;2023-07-28T00:30:50;18.60;99.90
19999;DHT22;10160;50.926;4.374;2023-07-28T00:33:16;18.60;99.90
19999;DHT22;10160;50.926;4.374;2023-07-28T00:35:42;18.60;99.90
19999;DHT22;10160;50.926;4.374;2023-07-28T00:38:08;18.60;99.90
19999;DHT22;10160;50.926;4.374;2023-07-28T00:40:35;18.60;99.90
19999;DHT22;10160;50.926;4.374;2023-07-28T00:43:04;18.60;99.90
19999;DHT22;10160;50.926;4.374;2023-07-28T00:45:33;18.60;99.90
19999;DHT22;10160;50.926;4.374;2023-07-28T00:48:00;18.60;99.90
19999;DHT22;10160;50.926;4.374;2023-07-28T00:50:26;18.50;99.90
19999;DHT22;10160;50.926;4.374;2023-07-28T00:52:52;18.60;99.90
19999;DHT22;10160;50.926;4.374;2023-07-28T00:55:18;18.60;99.90
19999;DHT22;10160;50.926;4.374;2023-07-28T00:57:44;18.60;99.90
19999;DHT22;10160;50.926;4.374;2023-07-28T01:00:10;18.70;99.90
19999;DHT22;10160;50.926;4.374;2023-07-28T01:02:36;18.60;99.90
19999;DHT22;10160;50.926;4.374;2023-07-28T01:05:03;18.70;99.90
19999;DHT22;10160;50.926;4.374;2023-07-28T01:10:30;18.60;99.90
19999;DHT22;10160;50.926;4.374;2023-07-28T01:12:57;18.40;99.90
19999;DHT22;10160;50.926;4.374;2023-07-28T01:15:23;18.50;99.90
19999;DHT22;10160;50.926;4.374;2023-07-28T01:17:49;18.50;99.90
19999;DHT22;10160;50.926;4.374;2023-07-28T01:20:16;18.50;99.90
19999;DHT22;10160;50.926;4.374;2023-07-28T01:23:13;18.70;99.90
19999;DHT22;10160;50.926;4.374;2023-07-28T01:28:27;18.70;99.90
19999;DHT22;10160;50.926;4.374;2023-07-28T01:30:57;18.70;99.90
19999;DHT22;10160;50.926;4.374;2023-07-28T01:33:23;18.80;99.90
19999;DHT22;10160;50.926;4.374;2023-07-28T01:35:48;18.80;99.90
19999;DHT22;10160;50.926;4.374;2023-07-28T01:38:14;18.90;99.90
19999;DHT22;10160;50.926;4.374;2023-07-28T01:40:44;18.80;99.90
19999;DHT22;10160;50.926;4.374;2023-07-28T01:43:10;18.80;99.90
19999;DHT22;10160;50.926;4.374;2023-07-28T01:45:41;18.90;99.90
19999;DHT22;10160;50.926;4.374;2023-07-28T01:48:07;18.80;99.90
19999;DHT22;10160;50.926;4.374;2023-07-28T01:50:38;18.70;99.90
19999;DHT22;10160;50.926;4.374;2023-07-28T01:53:07;18.80;99.90
19999;DHT22;10160;50.926;4.374;2023-07-28T01:55:33;18.80;99.90
19999;DHT22;10160;50.926;4.374;2023-07-28T01:58:00;18.80;99.90
19999;DHT22;10160;50.926;4.374;2023-07-28T02:00:26;18.80;99.90
19999;DHT22;10160;50.926;4.374;2023-07-28T02:02:55;18.80;99.90
19999;DHT22;10160;50.926;4.374;2023-07-28T02:05:23;18.80;99.90
19999;DHT22;10160;50.926;4.374;2023-07-28T02:08:01;18.70;99.90
19999;DHT22;10160;50.926;4.374;2023-07-28T02:10:28;18.80;99.90
19999;DHT22;10160;50.926;4.374;2023-07-28T02:12:54;18.80;99.90
19999;DHT22;10160;50.926;4.374;2023-07-28T02:15:19;18.80;99.90
19999;DHT22;10160;50.926;4.374;2023-07-28T02:17:45;18.90;99.90
19999;DHT22;10160;50.926;4.374;2023-07-28T02:20:11;18.90;99.90
19999;DHT22;10160;50.926;4.374;2023-07-28T02:22:39;18.90;99.90
19999;DHT22;10160;50.926;4.374;2023-07-28T02:25:09;18.80;99.90
19999;DHT22;10160;50.926;4.374;2023-07-28T02:27:34;18.80;99.90
19999;DHT22;10160;50.926;4.374;2023-07-28T02:30:10;18.90;99.90
19999;DHT22;10160;50.926;4.374;2023-07-28T02:32:45;18.90;99.90
19999;DHT22;10160;50.926;4.374;2023-07-28T02:35:10;18.80;99.90
19999;DHT22;10160;50.926;4.374;2023-07-28T02:37:36;18.80;99.90
19999;DHT22;10160;50.926;4.374;2023-07-28T02:40:05;18.70;99.90
19999;DHT22;10160;50.926;4.374;2023-07-28T02:42:36;18.60;99.90
19999;DHT22;10160;50.926;4.374;2023-07-28T02:45:02;18.60;99.90
19999;DHT22;10160;50.926;4.374;2023-07-28T02:47:28;18.60;99.90
19999;DHT22;10160;50.926;4.374;2023-07-28T02:49:54;18.60;99.90
19999;DHT22;10160;50.926;4.374;2023-07-28T02:52:19;18.60;99.90
19999;DHT22;10160;50.926;4.374;2023-07-28T02:54:45;18.60;99.90
19999;DHT22;10160;50.926;4.374;2023-07-28T02:57:19;18.70;99.90
19999;DHT22;10160;50.926;4.374;2023-07-28T02:59:48;18.70;99.90
19999;DHT22;10160;50.926;4.374;2023-07-28T03:02:14;18.70;99.90
19999;DHT22;10160;50.926;4.374;2023-07-28T03:04:41;18.70;99.90
19999;DHT22;10160;50.926;4.374;2023-07-28T03:07:06;18.70;99.90
19999;DHT22;10160;50.926;4.374;2023-07-28T03:09:32;18.70;99.90
19999;DHT22;10160;50.926;4.374;2023-07-28T03:11:58;18.70;99.90
19999;DHT22;10160;50.926;4.374;2023-07-28T03:14:23;18.70;99.90
19999;DHT22;10160;50.926;4.374;2023-07-28T03:16:49;18.80;99.90
19999;DHT22;10160;50.926;4.374;2023-07-28T03:19:14;18.70;99.90
19999;DHT22;10160;50.926;4.374;2023-07-28T03:21:40;18.70;99.90
19999;DHT22;10160;50.926;4.374;2023-07-28T03:24:06;18.70;99.90
19999;DHT22;10160;50.926;4.374;2023-07-28T03:26:31;18.60;99.90
19999;DHT22;10160;50.926;4.374;2023-07-28T03:28:57;18.60;99.90
19999;DHT22;10160;50.926;4.374;2023-07-28T03:31:25;18.70;99.90
19999;DHT22;10160;50.926;4.374;2023-07-28T03:33:51;18.70;99.90
19999;DHT22;10160;50.926;4.374;2023-07-28T03:36:17;18.70;99.90
19999;DHT22;10160;50.926;4.374;2023-07-28T03:38:44;18.70;99.90
19999;DHT22;10160;50.926;4.374;2023-07-28T03:41:10;18.70;99.90
19999;DHT22;10160;50.926;4.374;2023-07-28T03:43:36;18.70;99.90
19999;DHT22;10160;50.926;4.374;2023-07-28T03:46:01;18.70;99.90
19999;DHT22;10160;50.926;4.374;2023-07-28T03:48:27;18.70;99.90
19999;DHT22;10160;50.926;4.374;2023-07-28T03:50:53;18.70;99.90
19999;DHT22;10160;50.926;4.374;2023-07-28T03:53:18;18.90;99.90
19999;DHT22;10160;50.926;4.374;2023-07-28T03:55:44;18.80;99.90
19999;DHT22;10160;50.926;4.374;2023-07-28T03:58:09;18.80;99.90
19999;DHT22;10160;50.926;4.374;2023-07-28T04:00:35;18.80;99.90
19999;DHT22;10160;50.926;4.374;2023-07-28T04:03:01;18.70;99.90
19999;DHT22;10160;50.926;4.374;2023-07-28T04:05:26;18.80;99.90
19999;DHT22;10160;50.926;4.374;2023-07-28T04:07:55;18.80;99.90
19999;DHT22;10160;50.926;4.374;2023-07-28T04:10:21;18.90;99.90
19999;DHT22;10160;50.926;4.374;2023-07-28T04:12:47;18.90;99.90
19999;DHT22;10160;50.926;4.374;2023-07-28T04:15:16;18.90;99.90
19999;DHT22;10160;50.926;4.374;2023-07-28T04:17:41;18.90;99.90
19999;DHT22;10160;50.926;4.374;2023-07-28T04:20:10;18.80;99.90
19999;DHT22;10160;50.926;4.374;2023-07-28T04:22:35;18.80;99.90
19999;DHT22;10160;50.926;4.374;2023-07-28T04:25:01;18.80;99.90
19999;DHT22;10160;50.926;4.374;2023-07-28T04:27:27;18.70;99.90
19999;DHT22;10160;50.926;4.374;2023-07-28T04:29:52;18.80;99.90
19999;DHT22;10160;50.926;4.374;2023-07-28T04:32:18;18.80;99.90
19999;DHT22;10160;50.926;4.374;2023-07-28T04:34:43;18.90;99.90
19999;DHT22;10160;50.926;4.374;2023-07-28T04:37:09;18.80;99.90
19999;DHT22;10160;50.926;4.374;2023-07-28T04:39:35;18.80;99.90
19999;DHT22;10160;50.926;4.374;2023-07-28T04:42:00;18.70;99.90
19999;DHT22;10160;50.926;4.374;2023-07-28T04:44:26;18.80;99.90
19999;DHT22;10160;50.926;4.374;2023-07-28T04:46:52;18.90;99.90
19999;DHT22;10160;50.926;4.374;2023-07-28T04:49:17;18.80;99.90
19999;DHT22;10160;50.926;4.374;2023-07-28T04:51:43;18.80;99.90
19999;DHT22;10160;50.926;4.374;2023-07-28T04:54:08;18.80;99.90
19999;DHT22;10160;50.926;4.374;2023-07-28T04:56:34;18.80;99.90
19999;DHT22;10160;50.926;4.374;2023-07-28T04:59:00;18.80;99.90
19999;DHT22;10160;50.926;4.374;2023-07-28T05:01:26;18.90;99.90
19999;DHT22;10160;50.926;4.374;2023-07-28T05:03:51;18.90;99.90
19999;DHT22;10160;50.926;4.374;2023-07-28T05:06:17;18.90;99.90
19999;DHT22;10160;50.926;4.374;2023-07-28T05:08:43;19.00;99.90
19999;DHT22;10160;50.926;4.374;2023-07-28T05:11:09;18.90;99.90
19999;DHT22;10160;50.926;4.374;2023-07-28T05:13:34;18.90;99.90
19999;DHT22;10160;50.926;4.374;2023-07-28T05:16:00;18.80;99.90
19999;DHT22;10160;50.926;4.374;2023-07-28T05:18:26;18.80;99.90
19999;DHT22;10160;50.926;4.374;2023-07-28T05:20:51;18.80;99.90
19999;DHT22;10160;50.926;4.374;2023-07-28T05:23:17;18.80;99.90
19999;DHT22;10160;50.926;4.374;2023-07-28T05:25:45;18.80;99.90
19999;DHT22;10160;50.926;4.374;2023-07-28T05:28:11;18.90;99.90
19999;DHT22;10160;50.926;4.374;2023-07-28T05:30:36;19.00;99.90
19999;DHT22;10160;50.926;4.374;2023-07-28T05:33:02;19.00;99.90
19999;DHT22;10160;50.926;4.374;2023-07-28T05:35:28;19.00;99.90
19999;DHT22;10160;50.926;4.374;2023-07-28T05:37:54;19.00;99.90
19999;DHT22;10160;50.926;4.374;2023-07-28T05:40:20;18.80;99.90
19999;DHT22;10160;50.926;4.374;2023-07-28T05:42:45;18.80;99.90
19999;DHT22;10160;50.926;4.374;2023-07-28T05:45:11;18.90;99.90
19999;DHT22;10160;50.926;4.374;2023-07-28T05:47:37;19.00;99.90
19999;DHT22;10160;50.926;4.374;2023-07-28T05:50:04;19.00;99.90
19999;DHT22;10160;50.926;4.374;2023-07-28T05:52:33;19.00;99.90
19999;DHT22;10160;50.926;4.374;2023-07-28T05:54:59;19.10;99.90
19999;DHT22;10160;50.926;4.374;2023-07-28T05:57:24;19.10;99.90
19999;DHT22;10160;50.926;4.374;2023-07-28T05:59:50;19.30;99.90
19999;DHT22;10160;50.926;4.374;2023-07-28T06:02:16;19.30;99.90
19999;DHT22;10160;50.926;4.374;2023-07-28T06:04:42;19.40;99.90
19999;DHT22;10160;50.926;4.374;2023-07-28T06:07:09;19.30;99.90
19999;DHT22;10160;50.926;4.374;2023-07-28T06:09:35;19.30;99.90
19999;DHT22;10160;50.926;4.374;2023-07-28T06:12:00;19.20;99.90
19999;DHT22;10160;50.926;4.374;2023-07-28T06:14:26;19.30;99.90
19999;DHT22;10160;50.926;4.374;2023-07-28T06:16:52;19.20;99.90
19999;DHT22;10160;50.926;4.374;2023-07-28T06:19:17;19.30;99.90
19999;DHT22;10160;50.926;4.374;2023-07-28T06:21:49;19.40;99.90
19999;DHT22;10160;50.926;4.374;2023-07-28T06:24:16;19.50;99.90
19999;DHT22;10160;50.926;4.374;2023-07-28T06:26:41;19.40;99.90
19999;DHT22;10160;50.926;4.374;2023-07-28T06:29:07;19.30;99.90
19999;DHT22;10160;50.926;4.374;2023-07-28T06:31:33;19.30;99.90
19999;DHT22;10160;50.926;4.374;2023-07-28T06:33:58;19.30;99.90
19999;DHT22;10160;50.926;4.374;2023-07-28T06:36:24;19.30;99.90
19999;DHT22;10160;50.926;4.374;2023-07-28T06:38:52;19.30;99.90
19999;DHT22;10160;50.926;4.374;2023-07-28T06:41:20;19.30;99.90
19999;DHT22;10160;50.926;4.374;2023-07-28T06:43:46;19.30;99.90
19999;DHT22;10160;50.926;4.374;2023-07-28T06:46:14;19.40;99.90
19999;DHT22;10160;50.926;4.374;2023-07-28T06:48:40;19.60;99.90
19999;DHT22;10160;50.926;4.374;2023-07-28T06:51:06;19.60;99.90
19999;DHT22;10160;50.926;4.374;2023-07-28T06:53:32;19.70;99.90
19999;DHT22;10160;50.926;4.374;2023-07-28T06:55:58;19.80;99.90
19999;DHT22;10160;50.926;4.374;2023-07-28T06:58:23;19.80;99.90
19999;DHT22;10160;50.926;4.374;2023-07-28T07:00:49;19.80;99.90
19999;DHT22;10160;50.926;4.374;2023-07-28T07:03:15;19.70;99.90
19999;DHT22;10160;50.926;4.374;2023-07-28T07:05:40;19.70;99.90
19999;DHT22;10160;50.926;4.374;2023-07-28T07:08:09;19.90;99.90
19999;DHT22;10160;50.926;4.374;2023-07-28T07:10:34;20.00;99.90
19999;DHT22;10160;50.926;4.374;2023-07-28T07:13:00;20.10;99.90
19999;DHT22;10160;50.926;4.374;2023-07-28T07:15:26;20.20;99.90
19999;DHT22;10160;50.926;4.374;2023-07-28T07:17:51;20.30;99.90
19999;DHT22;10160;50.926;4.374;2023-07-28T07:20:17;20.50;99.90
19999;DHT22;10160;50.926;4.374;2023-07-28T07:22:46;20.40;99.90
19999;DHT22;10160;50.926;4.374;2023-07-28T07:25:12;20.40;99.90
19999;DHT22;10160;50.926;4.374;2023-07-28T07:27:38;20.40;99.90
19999;DHT22;10160;50.926;4.374;2023-07-28T07:30:04;20.30;99.90
19999;DHT22;10160;50.926;4.374;2023-07-28T07:32:30;20.60;99.90
19999;DHT22;10160;50.926;4.374;2023-07-28T07:34:57;20.70;99.90
19999;DHT22;10160;50.926;4.374;2023-07-28T07:37:23;20.80;99.90
19999;DHT22;10160;50.926;4.374;2023-07-28T07:39:49;20.70;99.90
19999;DHT22;10160;50.926;4.374;2023-07-28T07:42:15;20.60;99.90
19999;DHT22;10160;50.926;4.374;2023-07-28T07:44:41;20.50;99.90
19999;DHT22;10160;50.926;4.374;2023-07-28T07:47:14;20.60;99.90
19999;DHT22;10160;50.926;4.374;2023-07-28T07:49:41;20.60;99.90
19999;DHT22;10160;50.926;4.374;2023-07-28T07:52:07;20.60;99.90
19999;DHT22;10160;50.926;4.374;2023-07-28T07:54:34;20.70;99.90
19999;DHT22;10160;50.926;4.374;2023-07-28T07:57:00;21.00;99.90
19999;DHT22;10160;50.926;4.374;2023-07-28T07:59:28;21.00;99.90
19999;DHT22;10160;50.926;4.374;2023-07-28T08:01:56;21.10;99.90
19999;DHT22;10160;50.926;4.374;2023-07-28T08:04:22;21.00;99.90
19999;DHT22;10160;50.926;4.374;2023-07-28T08:06:47;21.10;99.90
19999;DHT22;10160;50.926;4.374;2023-07-28T08:09:13;21.10;99.90
19999;DHT22;10160;50.926;4.374;2023-07-28T08:11:39;21.00;99.90
19999;DHT22;10160;50.926;4.374;2023-07-28T08:14:05;20.80;99.90
19999;DHT22;10160;50.926;4.374;2023-07-28T08:16:31;20.80;99.90
19999;DHT22;10160;50.926;4.374;2023-07-28T08:18:56;20.80;99.90
19999;DHT22;10160;50.926;4.374;2023-07-28T08:21:22;20.80;99.90
19999;DHT22;10160;50.926;4.374;2023-07-28T08:23:48;21.00;99.90
19999;DHT22;10160;50.926;4.374;2023-07-28T08:26:14;21.00;99.90
19999;DHT22;10160;50.926;4.374;2023-07-28T08:28:39;21.20;99.90
19999;DHT22;10160;50.926;4.374;2023-07-28T08:31:05;21.40;99.90
19999;DHT22;10160;50.926;4.374;2023-07-28T08:33:31;21.30;99.90
19999;DHT22;10160;50.926;4.374;2023-07-28T08:35:57;21.20;99.90
19999;DHT22;10160;50.926;4.374;2023-07-28T08:38:23;21.10;99.90
19999;DHT22;10160;50.926;4.374;2023-07-28T08:40:49;21.00;99.90
19999;DHT22;10160;50.926;4.374;2023-07-28T08:43:14;20.90;99.90
19999;DHT22;10160;50.926;4.374;2023-07-28T08:45:40;20.70;99.90
19999;DHT22;10160;50.926;4.374;2023-07-28T08:48:06;20.70;99.90
19999;DHT22;10160;50.926;4.374;2023-07-28T08:50:34;20.80;99.90
19999;DHT22;10160;50.926;4.374;2023-07-28T08:53:00;21.10;99.90
19999;DHT22;10160;50.926;4.374;2023-07-28T08:55:26;21.30;99.90
19999;DHT22;10160;50.926;4.374;2023-07-28T08:57:51;21.40;99.90
19999;DHT22;10160;50.926;4.374;2023-07-28T09:00:17;21.50;99.90
19999;DHT22;10160;50.926;4.374;2023-07-28T09:02:49;21.60;99.90
19999;DHT22;10160;50.926;4.374;2023-07-28T09:05:18;21.50;99.90
19999;DHT22;10160;50.926;4.374;2023-07-28T09:07:45;21.50;99.90
19999;DHT22;10160;50.926;4.374;2023-07-28T09:10:11;21.40;99.90
19999;DHT22;10160;50.926;4.374;2023-07-28T09:12:45;21.50;99.90
19999;DHT22;10160;50.926;4.374;2023-07-28T09:15:11;21.20;99.90
19999;DHT22;10160;50.926;4.374;2023-07-28T09:17:42;21.40;99.90
19999;DHT22;10160;50.926;4.374;2023-07-28T09:20:15;21.60;99.90
19999;DHT22;10160;50.926;4.374;2023-07-28T09:22:43;21.50;99.90
19999;DHT22;10160;50.926;4.374;2023-07-28T09:25:14;21.50;99.90
19999;DHT22;10160;50.926;4.374;2023-07-28T09:27:40;21.60;99.90
19999;DHT22;10160;50.926;4.374;2023-07-28T09:30:06;21.50;99.90
19999;DHT22;10160;50.926;4.374;2023-07-28T09:32:33;21.50;99.90
19999;DHT22;10160;50.926;4.374;2023-07-28T09:35:11;21.60;99.90
19999;DHT22;10160;50.926;4.374;2023-07-28T09:37:40;21.30;99.90
19999;DHT22;10160;50.926;4.374;2023-07-28T09:40:13;21.20;99.90
19999;DHT22;10160;50.926;4.374;2023-07-28T09:42:41;21.30;99.90
19999;DHT22;10160;50.926;4.374;2023-07-28T09:45:08;21.50;99.90
19999;DHT22;10160;50.926;4.374;2023-07-28T09:47:35;21.70;99.90
19999;DHT22;10160;50.926;4.374;2023-07-28T09:50:03;21.90;99.90
19999;DHT22;10160;50.926;4.374;2023-07-28T09:52:42;22.10;99.90
19999;DHT22;10160;50.926;4.374;2023-07-28T09:55:09;22.00;99.90
19999;DHT22;10160;50.926;4.374;2023-07-28T09:57:39;21.80;99.90
19999;DHT22;10160;50.926;4.374;2023-07-28T10:00:09;21.70;99.90
19999;DHT22;10160;50.926;4.374;2023-07-28T10:02:36;21.80;99.90
19999;DHT22;10160;50.926;4.374;2023-07-28T10:05:03;21.70;99.90
19999;DHT22;10160;50.926;4.374;2023-07-28T10:07:30;21.80;99.90
19999;DHT22;10160;50.926;4.374;2023-07-28T10:09:56;21.70;99.90
19999;DHT22;10160;50.926;4.374;2023-07-28T10:12:26;21.80;99.90
19999;DHT22;10160;50.926;4.374;2023-07-28T10:15:02;21.80;99.90
19999;DHT22;10160;50.926;4.374;2023-07-28T10:17:33;21.80;99.90
19999;DHT22;10160;50.926;4.374;2023-07-28T10:20:03;21.50;99.90
19999;DHT22;10160;50.926;4.374;2023-07-28T10:22:46;21.40;99.90
19999;DHT22;10160;50.926;4.374;2023-07-28T10:25:12;21.50;99.90
19999;DHT22;10160;50.926;4.374;2023-07-28T10:27:43;21.70;99.90
19999;DHT22;10160;50.926;4.374;2023-07-28T10:30:11;22.20;99.90
19999;DHT22;10160;50.926;4.374;2023-07-28T10:32:39;22.50;99.90
19999;DHT22;10160;50.926;4.374;2023-07-28T10:37:38;22.30;99.90
19999;DHT22;10160;50.926;4.374;2023-07-28T10:40:23;22.30;99.90
19999;DHT22;10160;50.926;4.374;2023-07-28T10:42:51;22.20;99.90
19999;DHT22;10160;50.926;4.374;2023-07-28T10:45:16;22.30;99.90
19999;DHT22;10160;50.926;4.374;2023-07-28T10:47:43;22.40;99.90
19999;DHT22;10160;50.926;4.374;2023-07-28T10:50:09;22.50;99.90
19999;DHT22;10160;50.926;4.374;2023-07-28T10:52:42;22.60;99.90
19999;DHT22;10160;50.926;4.374;2023-07-28T10:55:15;22.80;99.90
19999;DHT22;10160;50.926;4.374;2023-07-28T10:57:45;22.90;99.90
19999;DHT22;10160;50.926;4.374;2023-07-28T11:00:12;23.10;99.90
19999;DHT22;10160;50.926;4.374;2023-07-28T11:02:49;23.60;99.90
19999;DHT22;10160;50.926;4.374;2023-07-28T11:05:23;24.00;99.90
19999;DHT22;10160;50.926;4.374;2023-07-28T11:07:50;23.60;99.90
19999;DHT22;10160;50.926;4.374;2023-07-28T11:10:18;23.40;99.90
19999;DHT22;10160;50.926;4.374;2023-07-28T11:12:48;23.20;99.90
19999;DHT22;10160;50.926;4.374;2023-07-28T11:15:15;23.10;99.90
19999;DHT22;10160;50.926;4.374;2023-07-28T11:17:43;23.00;99.90
19999;DHT22;10160;50.926;4.374;2023-07-28T11:20:19;22.80;99.90
19999;DHT22;10160;50.926;4.374;2023-07-28T11:22:46;22.90;99.90
19999;DHT22;10160;50.926;4.374;2023-07-28T11:25:12;22.70;99.90
19999;DHT22;10160;50.926;4.374;2023-07-28T11:27:39;22.60;99.90
19999;DHT22;10160;50.926;4.374;2023-07-28T11:30:07;22.80;99.90
19999;DHT22;10160;50.926;4.374;2023-07-28T11:32:37;23.20;99.90
19999;DHT22;10160;50.926;4.374;2023-07-28T11:35:07;23.40;99.90
19999;DHT22;10160;50.926;4.374;2023-07-28T11:37:35;23.80;99.90
19999;DHT22;10160;50.926;4.374;2023-07-28T11:40:02;24.10;99.90
19999;DHT22;10160;50.926;4.374;2023-07-28T11:42:38;24.10;99.90
19999;DHT22;10160;50.926;4.374;2023-07-28T11:45:05;23.90;99.90
19999;DHT22;10160;50.926;4.374;2023-07-28T11:47:31;23.60;99.90
19999;DHT22;10160;50.926;4.374;2023-07-28T11:49:57;23.50;99.90
19999;DHT22;10160;50.926;4.374;2023-07-28T11:52:37;23.70;99.90
19999;DHT22;10160;50.926;4.374;2023-07-28T11:55:05;23.70;99.90
19999;DHT22;10160;50.926;4.374;2023-07-28T11:57:31;23.40;99.90
19999;DHT22;10160;50.926;4.374;2023-07-28T11:59:57;23.50;99.90
19999;DHT22;10160;50.926;4.374;2023-07-28T12:02:30;23.60;99.90
19999;DHT22;10160;50.926;4.374;2023-07-28T12:04:56;23.50;99.90
19999;DHT22;10160;50.926;4.374;2023-07-28T12:07:31;24.10;99.90
19999;DHT22;10160;50.926;4.374;2023-07-28T12:10:05;24.40;99.90
19999;DHT22;10160;50.926;4.374;2023-07-28T12:12:45;24.40;99.90
19999;DHT22;10160;50.926;4.374;2023-07-28T12:15:30;24.40;99.90
19999;DHT22;10160;50.926;4.374;2023-07-28T12:18:15;24.40;99.90
19999;DHT22;10160;50.926;4.374;2023-07-28T12:20:46;24.20;99.90
19999;DHT22;10160;50.926;4.374;2023-07-28T12:23:17;24.40;99.90
19999;DHT22;10160;50.926;4.374;2023-07-28T12:25:44;24.40;99.90
19999;DHT22;10160;50.926;4.374;2023-07-28T12:28:10;24.30;99.90
19999;DHT22;10160;50.926;4.374;2023-07-28T12:30:39;24.10;99.90
19999;DHT22;10160;50.926;4.374;2023-07-28T12:33:05;24.10;99.90
19999;DHT22;10160;50.926;4.374;2023-07-28T12:35:32;24.40;99.90
19999;DHT22;10160;50.926;4.374;2023-07-28T12:38:01;24.50;99.90
19999;DHT22;10160;50.926;4.374;2023-07-28T12:40:28;24.60;99.90
19999;DHT22;10160;50.926;4.374;2023-07-28T12:42:57;24.70;99.90
19999;DHT22;10160;50.926;4.374;2023-07-28T12:45:24;24.50;99.90
19999;DHT22;10160;50.926;4.374;2023-07-28T12:47:55;24.40;99.90
19999;DHT22;10160;50.926;4.374;2023-07-28T12:50:22;24.40;99.90
19999;DHT22;10160;50.926;4.374;2023-07-28T12:52:48;24.40;99.90
19999;DHT22;10160;50.926;4.374;2023-07-28T12:55:18;24.50;99.90
19999;DHT22;10160;50.926;4.374;2023-07-28T12:57:44;24.40;99.90
19999;DHT22;10160;50.926;4.374;2023-07-28T13:00:10;24.10;99.90
19999;DHT22;10160;50.926;4.374;2023-07-28T13:02:42;24.30;99.90
19999;DHT22;10160;50.926;4.374;2023-07-28T13:05:09;24.60;99.90
19999;DHT22;10160;50.926;4.374;2023-07-28T13:07:38;24.60;99.90
19999;DHT22;10160;50.926;4.374;2023-07-28T13:10:08;24.70;99.90
19999;DHT22;10160;50.926;4.374;2023-07-28T13:12:35;24.90;99.90
19999;DHT22;10160;50.926;4.374;2023-07-28T13:15:01;25.00;99.90
19999;DHT22;10160;50.926;4.374;2023-07-28T13:17:27;25.00;99.90
19999;DHT22;10160;50.926;4.374;2023-07-28T13:19:52;25.10;99.90
19999;DHT22;10160;50.926;4.374;2023-07-28T13:22:27;25.40;99.90
19999;DHT22;10160;50.926;4.374;2023-07-28T13:24:52;25.40;99.90
19999;DHT22;10160;50.926;4.374;2023-07-28T13:27:19;25.30;99.90
19999;DHT22;10160;50.926;4.374;2023-07-28T13:29:45;24.60;99.90
19999;DHT22;10160;50.926;4.374;2023-07-28T13:32:24;24.50;99.90
19999;DHT22;10160;50.926;4.374;2023-07-28T13:34:50;24.20;99.90
19999;DHT22;10160;50.926;4.374;2023-07-28T13:37:16;24.30;99.90
19999;DHT22;10160;50.926;4.374;2023-07-28T13:39:42;24.50;99.90
19999;DHT22;10160;50.926;4.374;2023-07-28T13:42:08;24.80;99.90
19999;DHT22;10160;50.926;4.374;2023-07-28T13:44:34;25.00;99.90
19999;DHT22;10160;50.926;4.374;2023-07-28T13:47:09;25.20;99.90
19999;DHT22;10160;50.926;4.374;2023-07-28T13:49:35;25.50;99.90
19999;DHT22;10160;50.926;4.374;2023-07-28T13:52:03;25.60;99.90
19999;DHT22;10160;50.926;4.374;2023-07-28T13:54:31;25.80;99.90
19999;DHT22;10160;50.926;4.374;2023-07-28T13:56:57;26.00;99.90
19999;DHT22;10160;50.926;4.374;2023-07-28T13:59:23;26.10;99.90
19999;DHT22;10160;50.926;4.374;2023-07-28T14:01:49;26.00;99.90
19999;DHT22;10160;50.926;4.374;2023-07-28T14:04:15;25.80;99.90
19999;DHT22;10160;50.926;4.374;2023-07-28T14:06:41;25.60;99.90
19999;DHT22;10160;50.926;4.374;2023-07-28T14:09:06;25.40;99.90
19999;DHT22;10160;50.926;4.374;2023-07-28T14:11:32;25.30;99.90
19999;DHT22;10160;50.926;4.374;2023-07-28T14:13:58;25.00;99.90
19999;DHT22;10160;50.926;4.374;2023-07-28T14:16:23;24.60;99.90
19999;DHT22;10160;50.926;4.374;2023-07-28T14:18:52;24.20;99.90
19999;DHT22;10160;50.926;4.374;2023-07-28T14:21:18;24.30;99.90
19999;DHT22;10160;50.926;4.374;2023-07-28T14:23:46;24.40;99.90
19999;DHT22;10160;50.926;4.374;2023-07-28T14:26:12;24.60;99.90
19999;DHT22;10160;50.926;4.374;2023-07-28T14:28:38;24.70;99.90
19999;DHT22;10160;50.926;4.374;2023-07-28T14:31:03;24.60;99.90
19999;DHT22;10160;50.926;4.374;2023-07-28T14:33:29;24.70;99.90
19999;DHT22;10160;50.926;4.374;2023-07-28T14:35:54;24.60;99.90
19999;DHT22;10160;50.926;4.374;2023-07-28T14:38:20;24.70;99.90
19999;DHT22;10160;50.926;4.374;2023-07-28T14:40:46;24.90;99.90
19999;DHT22;10160;50.926;4.374;2023-07-28T14:43:15;25.00;99.90
19999;DHT22;10160;50.926;4.374;2023-07-28T14:45:41;25.30;99.90
19999;DHT22;10160;50.926;4.374;2023-07-28T14:48:10;25.70;99.90
19999;DHT22;10160;50.926;4.374;2023-07-28T14:50:37;25.80;99.90
19999;DHT22;10160;50.926;4.374;2023-07-28T14:53:02;25.70;99.90
19999;DHT22;10160;50.926;4.374;2023-07-28T14:55:28;25.50;99.90
19999;DHT22;10160;50.926;4.374;2023-07-28T14:57:54;25.60;99.90
19999;DHT22;10160;50.926;4.374;2023-07-28T15:00:19;25.60;99.90
19999;DHT22;10160;50.926;4.374;2023-07-28T15:02:45;25.80;99.90
19999;DHT22;10160;50.926;4.374;2023-07-28T15:05:11;25.40;99.90
19999;DHT22;10160;50.926;4.374;2023-07-28T15:07:36;25.10;99.90
19999;DHT22;10160;50.926;4.374;2023-07-28T15:10:03;25.20;99.90
19999;DHT22;10160;50.926;4.374;2023-07-28T15:12:29;25.10;99.90
19999;DHT22;10160;50.926;4.374;2023-07-28T15:14:55;25.20;99.90
19999;DHT22;10160;50.926;4.374;2023-07-28T15:17:20;25.20;99.90
19999;DHT22;10160;50.926;4.374;2023-07-28T15:19:46;25.30;99.90
19999;DHT22;10160;50.926;4.374;2023-07-28T15:22:12;25.30;99.90
19999;DHT22;10160;50.926;4.374;2023-07-28T15:24:37;25.60;99.90
19999;DHT22;10160;50.926;4.374;2023-07-28T15:27:03;25.80;99.90
19999;DHT22;10160;50.926;4.374;2023-07-28T15:29:29;25.80;99.90
19999;DHT22;10160;50.926;4.374;2023-07-28T15:31:55;25.90;99.90
19999;DHT22;10160;50.926;4.374;2023-07-28T15:34:20;26.00;99.90
19999;DHT22;10160;50.926;4.374;2023-07-28T15:36:47;25.90;99.90
19999;DHT22;10160;50.926;4.374;2023-07-28T15:39:13;26.00;99.90